sensor_id;sensor_type;location;lat;lon;timestamp;P1;durP1;ratioP1;P2;durP2;ratioP2
61344;SDS011;47216;42.656;23.232;2023-04-12T00:01:30;6.73;;;5.27;;
61344;SDS011;47216;42.656;23.232;2023-04-12T00:03:58;15.00;;;6.47;;
61344;SDS011;47216;42.656;23.232;2023-04-12T00:06:27;8.30;;;5.33;;
61344;SDS011;47216;42.656;23.232;2023-04-12T00:08:56;8.43;;;5.83;;
61344;SDS011;47216;42.656;23.232;2023-04-12T00:11:24;9.53;;;7.87;;
61344;SDS011;47216;42.656;23.232;2023-04-12T00:13:51;7.53;;;5.87;;
61344;SDS011;47216;42.656;23.232;2023-04-12T00:16:18;6.43;;;5.10;;
61344;SDS011;47216;42.656;23.232;2023-04-12T00:18:45;7.77;;;4.93;;
61344;SDS011;47216;42.656;23.232;2023-04-12T00:21:14;7.33;;;5.23;;
61344;SDS011;47216;42.656;23.232;2023-04-12T00:23:43;7.90;;;5.23;;
61344;SDS011;47216;42.656;23.232;2023-04-12T00:26:11;7.87;;;5.30;;
61344;SDS011;47216;42.656;23.232;2023-04-12T00:28:38;11.07;;;5.67;;
61344;SDS011;47216;42.656;23.232;2023-04-12T00:31:05;8.73;;;5.67;;
61344;SDS011;47216;42.656;23.232;2023-04-12T00:33:32;7.10;;;5.27;;
61344;SDS011;47216;42.656;23.232;2023-04-12T00:35:59;7.30;;;5.10;;
61344;SDS011;47216;42.656;23.232;2023-04-12T00:38:28;7.53;;;5.27;;
61344;SDS011;47216;42.656;23.232;2023-04-12T00:40:55;12.37;;;7.70;;
61344;SDS011;47216;42.656;23.232;2023-04-12T00:43:21;9.80;;;7.13;;
61344;SDS011;47216;42.656;23.232;2023-04-12T00:45:51;9.60;;;6.93;;
61344;SDS011;47216;42.656;23.232;2023-04-12T00:48:22;8.23;;;5.70;;
61344;SDS011;47216;42.656;23.232;2023-04-12T00:50:50;8.63;;;5.70;;
61344;SDS011;47216;42.656;23.232;2023-04-12T00:53:19;8.87;;;5.87;;
61344;SDS011;47216;42.656;23.232;2023-04-12T00:55:49;10.57;;;5.43;;
61344;SDS011;47216;42.656;23.232;2023-04-12T00:58:16;8.60;;;6.10;;
61344;SDS011;47216;42.656;23.232;2023-04-12T01:00:43;9.50;;;5.97;;
61344;SDS011;47216;42.656;23.232;2023-04-12T01:03:14;8.13;;;5.40;;
61344;SDS011;47216;42.656;23.232;2023-04-12T01:05:48;8.70;;;5.73;;
61344;SDS011;47216;42.656;23.232;2023-04-12T01:08:22;7.67;;;5.27;;
61344;SDS011;47216;42.656;23.232;2023-04-12T01:10:56;8.47;;;5.90;;
61344;SDS011;47216;42.656;23.232;2023-04-12T01:13:31;11.07;;;6.33;;
61344;SDS011;47216;42.656;23.232;2023-04-12T01:16:05;8.00;;;5.47;;
61344;SDS011;47216;42.656;23.232;2023-04-12T01:18:38;8.67;;;5.90;;
61344;SDS011;47216;42.656;23.232;2023-04-12T01:21:11;7.67;;;5.23;;
61344;SDS011;47216;42.656;23.232;2023-04-12T01:23:51;6.70;;;5.17;;
61344;SDS011;47216;42.656;23.232;2023-04-12T01:26:30;8.00;;;5.83;;
61344;SDS011;47216;42.656;23.232;2023-04-12T01:29:03;9.67;;;5.93;;
61344;SDS011;47216;42.656;23.232;2023-04-12T01:31:36;8.53;;;5.50;;
61344;SDS011;47216;42.656;23.232;2023-04-12T01:34:06;13.73;;;10.43;;
61344;SDS011;47216;42.656;23.232;2023-04-12T01:36:36;9.77;;;5.83;;
61344;SDS011;47216;42.656;23.232;2023-04-12T01:39:05;9.43;;;6.03;;
61344;SDS011;47216;42.656;23.232;2023-04-12T01:41:36;7.27;;;5.47;;
61344;SDS011;47216;42.656;23.232;2023-04-12T01:44:07;8.83;;;5.67;;
61344;SDS011;47216;42.656;23.232;2023-04-12T01:46:34;11.13;;;5.63;;
61344;SDS011;47216;42.656;23.232;2023-04-12T01:49:01;7.37;;;5.20;;
61344;SDS011;47216;42.656;23.232;2023-04-12T01:51:33;9.07;;;5.93;;
61344;SDS011;47216;42.656;23.232;2023-04-12T01:54:08;10.67;;;6.57;;
61344;SDS011;47216;42.656;23.232;2023-04-12T01:56:40;9.33;;;6.03;;
61344;SDS011;47216;42.656;23.232;2023-04-12T01:59:12;9.57;;;5.50;;
61344;SDS011;47216;42.656;23.232;2023-04-12T02:01:41;8.73;;;6.03;;
61344;SDS011;47216;42.656;23.232;2023-04-12T02:04:09;12.53;;;8.10;;
61344;SDS011;47216;42.656;23.232;2023-04-12T02:06:36;11.00;;;6.77;;
61344;SDS011;47216;42.656;23.232;2023-04-12T02:09:04;13.97;;;8.47;;
61344;SDS011;47216;42.656;23.232;2023-04-12T02:11:31;9.77;;;6.73;;
61344;SDS011;47216;42.656;23.232;2023-04-12T02:13:58;8.50;;;5.83;;
61344;SDS011;47216;42.656;23.232;2023-04-12T02:16:27;9.97;;;6.63;;
61344;SDS011;47216;42.656;23.232;2023-04-12T02:18:54;8.70;;;5.70;;
61344;SDS011;47216;42.656;23.232;2023-04-12T02:21:21;9.03;;;6.80;;
61344;SDS011;47216;42.656;23.232;2023-04-12T02:23:48;9.40;;;6.33;;
61344;SDS011;47216;42.656;23.232;2023-04-12T02:26:15;9.50;;;5.93;;
61344;SDS011;47216;42.656;23.232;2023-04-12T02:28:43;11.30;;;5.90;;
61344;SDS011;47216;42.656;23.232;2023-04-12T02:31:10;8.23;;;5.90;;
61344;SDS011;47216;42.656;23.232;2023-04-12T02:33:38;10.97;;;6.53;;
61344;SDS011;47216;42.656;23.232;2023-04-12T02:36:07;10.37;;;6.63;;
61344;SDS011;47216;42.656;23.232;2023-04-12T02:38:35;9.17;;;6.73;;
61344;SDS011;47216;42.656;23.232;2023-04-12T02:41:02;9.20;;;6.27;;
61344;SDS011;47216;42.656;23.232;2023-04-12T02:43:29;9.07;;;6.43;;
61344;SDS011;47216;42.656;23.232;2023-04-12T02:45:55;10.53;;;6.60;;
61344;SDS011;47216;42.656;23.232;2023-04-12T02:48:22;11.70;;;6.57;;
61344;SDS011;47216;42.656;23.232;2023-04-12T02:50:51;9.50;;;6.23;;
61344;SDS011;47216;42.656;23.232;2023-04-12T02:53:17;10.03;;;6.43;;
61344;SDS011;47216;42.656;23.232;2023-04-12T02:55:45;10.60;;;5.97;;
61344;SDS011;47216;42.656;23.232;2023-04-12T02:58:12;9.07;;;6.47;;
61344;SDS011;47216;42.656;23.232;2023-04-12T03:00:39;10.67;;;5.93;;
61344;SDS011;47216;42.656;23.232;2023-04-12T03:03:06;12.13;;;6.40;;
61344;SDS011;47216;42.656;23.232;2023-04-12T03:05:33;8.47;;;6.20;;
61344;SDS011;47216;42.656;23.232;2023-04-12T03:08:02;11.50;;;7.83;;
61344;SDS011;47216;42.656;23.232;2023-04-12T03:10:28;12.50;;;7.57;;
61344;SDS011;47216;42.656;23.232;2023-04-12T03:12:55;11.93;;;7.60;;
61344;SDS011;47216;42.656;23.232;2023-04-12T03:15:22;12.83;;;7.77;;
61344;SDS011;47216;42.656;23.232;2023-04-12T03:17:49;14.00;;;8.63;;
61344;SDS011;47216;42.656;23.232;2023-04-12T03:20:15;12.93;;;8.27;;
61344;SDS011;47216;42.656;23.232;2023-04-12T03:22:44;13.73;;;8.80;;
61344;SDS011;47216;42.656;23.232;2023-04-12T03:25:12;13.80;;;9.17;;
61344;SDS011;47216;42.656;23.232;2023-04-12T03:27:41;13.27;;;8.43;;
61344;SDS011;47216;42.656;23.232;2023-04-12T03:30:09;12.23;;;8.73;;
61344;SDS011;47216;42.656;23.232;2023-04-12T03:32:36;12.93;;;8.57;;
61344;SDS011;47216;42.656;23.232;2023-04-12T03:35:04;12.10;;;8.47;;
61344;SDS011;47216;42.656;23.232;2023-04-12T03:37:31;16.33;;;8.90;;
61344;SDS011;47216;42.656;23.232;2023-04-12T03:39:58;14.67;;;8.50;;
61344;SDS011;47216;42.656;23.232;2023-04-12T03:42:27;12.90;;;8.17;;
61344;SDS011;47216;42.656;23.232;2023-04-12T03:44:54;10.73;;;7.90;;
61344;SDS011;47216;42.656;23.232;2023-04-12T03:47:21;10.20;;;7.53;;
61344;SDS011;47216;42.656;23.232;2023-04-12T03:49:48;10.03;;;7.37;;
61344;SDS011;47216;42.656;23.232;2023-04-12T03:52:15;11.73;;;8.10;;
61344;SDS011;47216;42.656;23.232;2023-04-12T03:54:41;12.80;;;7.50;;
61344;SDS011;47216;42.656;23.232;2023-04-12T03:57:09;11.57;;;8.40;;
61344;SDS011;47216;42.656;23.232;2023-04-12T03:59:37;10.37;;;7.53;;
61344;SDS011;47216;42.656;23.232;2023-04-12T04:02:03;11.57;;;7.80;;
61344;SDS011;47216;42.656;23.232;2023-04-12T04:04:31;13.20;;;8.47;;
61344;SDS011;47216;42.656;23.232;2023-04-12T04:06:57;14.53;;;10.23;;
61344;SDS011;47216;42.656;23.232;2023-04-12T04:09:25;12.83;;;8.43;;
61344;SDS011;47216;42.656;23.232;2023-04-12T04:11:52;14.47;;;9.23;;
61344;SDS011;47216;42.656;23.232;2023-04-12T04:14:18;12.97;;;7.87;;
61344;SDS011;47216;42.656;23.232;2023-04-12T04:16:46;11.03;;;7.47;;
61344;SDS011;47216;42.656;23.232;2023-04-12T04:19:13;12.27;;;8.43;;
61344;SDS011;47216;42.656;23.232;2023-04-12T04:21:40;11.17;;;7.40;;
61344;SDS011;47216;42.656;23.232;2023-04-12T04:24:08;13.60;;;7.90;;
61344;SDS011;47216;42.656;23.232;2023-04-12T04:26:35;10.47;;;7.13;;
61344;SDS011;47216;42.656;23.232;2023-04-12T04:29:02;15.03;;;8.30;;
61344;SDS011;47216;42.656;23.232;2023-04-12T04:31:30;15.73;;;8.37;;
61344;SDS011;47216;42.656;23.232;2023-04-12T04:34:00;12.53;;;8.03;;
61344;SDS011;47216;42.656;23.232;2023-04-12T04:36:31;11.40;;;7.37;;
61344;SDS011;47216;42.656;23.232;2023-04-12T04:38:59;10.90;;;7.17;;
61344;SDS011;47216;42.656;23.232;2023-04-12T04:41:26;13.10;;;6.90;;
61344;SDS011;47216;42.656;23.232;2023-04-12T04:43:53;10.70;;;6.80;;
61344;SDS011;47216;42.656;23.232;2023-04-12T04:46:20;11.90;;;6.87;;
61344;SDS011;47216;42.656;23.232;2023-04-12T04:48:46;11.13;;;7.70;;
61344;SDS011;47216;42.656;23.232;2023-04-12T04:51:17;9.20;;;6.47;;
61344;SDS011;47216;42.656;23.232;2023-04-12T04:53:43;13.17;;;6.80;;
61344;SDS011;47216;42.656;23.232;2023-04-12T04:56:10;7.77;;;5.57;;
61344;SDS011;47216;42.656;23.232;2023-04-12T04:58:37;8.13;;;5.47;;
61344;SDS011;47216;42.656;23.232;2023-04-12T05:01:04;12.30;;;6.03;;
61344;SDS011;47216;42.656;23.232;2023-04-12T05:03:32;8.50;;;5.70;;
61344;SDS011;47216;42.656;23.232;2023-04-12T05:05:59;6.90;;;5.37;;
61344;SDS011;47216;42.656;23.232;2023-04-12T05:08:28;7.97;;;5.30;;
61344;SDS011;47216;42.656;23.232;2023-04-12T05:10:55;8.67;;;5.20;;
61344;SDS011;47216;42.656;23.232;2023-04-12T05:13:23;7.30;;;5.20;;
61344;SDS011;47216;42.656;23.232;2023-04-12T05:15:49;8.33;;;6.13;;
61344;SDS011;47216;42.656;23.232;2023-04-12T05:18:16;9.00;;;5.73;;
61344;SDS011;47216;42.656;23.232;2023-04-12T05:20:43;8.53;;;5.73;;
61344;SDS011;47216;42.656;23.232;2023-04-12T05:23:12;7.10;;;4.60;;
61344;SDS011;47216;42.656;23.232;2023-04-12T05:25:43;6.20;;;4.60;;
61344;SDS011;47216;42.656;23.232;2023-04-12T05:28:12;8.90;;;4.90;;
61344;SDS011;47216;42.656;23.232;2023-04-12T05:30:41;7.83;;;4.13;;
61344;SDS011;47216;42.656;23.232;2023-04-12T05:33:08;5.47;;;4.17;;
61344;SDS011;47216;42.656;23.232;2023-04-12T05:35:35;10.57;;;4.33;;
61344;SDS011;47216;42.656;23.232;2023-04-12T05:38:02;8.07;;;4.47;;
61344;SDS011;47216;42.656;23.232;2023-04-12T05:40:29;5.47;;;3.77;;
61344;SDS011;47216;42.656;23.232;2023-04-12T05:42:58;7.23;;;4.47;;
61344;SDS011;47216;42.656;23.232;2023-04-12T05:45:25;5.80;;;3.70;;
61344;SDS011;47216;42.656;23.232;2023-04-12T05:47:52;5.47;;;3.33;;
61344;SDS011;47216;42.656;23.232;2023-04-12T05:50:19;6.10;;;3.23;;
61344;SDS011;47216;42.656;23.232;2023-04-12T05:52:46;15.87;;;8.87;;
61344;SDS011;47216;42.656;23.232;2023-04-12T05:55:13;5.77;;;3.60;;
61344;SDS011;47216;42.656;23.232;2023-04-12T05:57:40;4.60;;;3.40;;
61344;SDS011;47216;42.656;23.232;2023-04-12T06:00:10;3.60;;;2.30;;
61344;SDS011;47216;42.656;23.232;2023-04-12T06:02:41;3.90;;;2.63;;
61344;SDS011;47216;42.656;23.232;2023-04-12T06:05:08;3.77;;;2.63;;
61344;SDS011;47216;42.656;23.232;2023-04-12T06:07:35;3.50;;;2.80;;
61344;SDS011;47216;42.656;23.232;2023-04-12T06:10:03;3.43;;;2.63;;
61344;SDS011;47216;42.656;23.232;2023-04-12T06:12:31;3.60;;;2.57;;
61344;SDS011;47216;42.656;23.232;2023-04-12T06:14:57;4.73;;;3.03;;
61344;SDS011;47216;42.656;23.232;2023-04-12T06:17:26;5.80;;;3.13;;
61344;SDS011;47216;42.656;23.232;2023-04-12T06:19:52;3.83;;;2.93;;
61344;SDS011;47216;42.656;23.232;2023-04-12T06:22:19;4.67;;;3.30;;
61344;SDS011;47216;42.656;23.232;2023-04-12T06:24:46;10.97;;;3.67;;
61344;SDS011;47216;42.656;23.232;2023-04-12T06:27:13;6.50;;;3.40;;
61344;SDS011;47216;42.656;23.232;2023-04-12T06:29:39;4.30;;;2.90;;
61344;SDS011;47216;42.656;23.232;2023-04-12T06:32:06;3.73;;;2.90;;
61344;SDS011;47216;42.656;23.232;2023-04-12T06:34:34;2.83;;;2.40;;
61344;SDS011;47216;42.656;23.232;2023-04-12T06:37:01;4.87;;;2.63;;
61344;SDS011;47216;42.656;23.232;2023-04-12T06:39:28;4.43;;;2.33;;
61344;SDS011;47216;42.656;23.232;2023-04-12T06:41:55;6.63;;;2.43;;
61344;SDS011;47216;42.656;23.232;2023-04-12T06:44:22;4.17;;;2.63;;
61344;SDS011;47216;42.656;23.232;2023-04-12T06:46:50;3.97;;;2.43;;
61344;SDS011;47216;42.656;23.232;2023-04-12T06:49:17;5.00;;;2.50;;
61344;SDS011;47216;42.656;23.232;2023-04-12T06:51:45;3.47;;;2.60;;
61344;SDS011;47216;42.656;23.232;2023-04-12T06:54:12;4.47;;;2.43;;
61344;SDS011;47216;42.656;23.232;2023-04-12T06:56:39;14.10;;;8.60;;
61344;SDS011;47216;42.656;23.232;2023-04-12T06:59:06;2.47;;;2.17;;
61344;SDS011;47216;42.656;23.232;2023-04-12T07:01:33;5.90;;;2.63;;
61344;SDS011;47216;42.656;23.232;2023-04-12T07:04:00;5.23;;;2.70;;
61344;SDS011;47216;42.656;23.232;2023-04-12T07:06:26;2.63;;;2.13;;
61344;SDS011;47216;42.656;23.232;2023-04-12T07:08:55;2.50;;;1.90;;
61344;SDS011;47216;42.656;23.232;2023-04-12T07:11:22;4.13;;;3.00;;
61344;SDS011;47216;42.656;23.232;2023-04-12T07:13:49;2.37;;;2.17;;
61344;SDS011;47216;42.656;23.232;2023-04-12T07:16:16;5.73;;;2.57;;
61344;SDS011;47216;42.656;23.232;2023-04-12T07:18:43;3.73;;;3.10;;
61344;SDS011;47216;42.656;23.232;2023-04-12T07:21:09;2.93;;;2.43;;
61344;SDS011;47216;42.656;23.232;2023-04-12T07:23:38;3.30;;;2.83;;
61344;SDS011;47216;42.656;23.232;2023-04-12T07:26:06;2.93;;;2.20;;
61344;SDS011;47216;42.656;23.232;2023-04-12T07:28:33;3.87;;;2.73;;
61344;SDS011;47216;42.656;23.232;2023-04-12T07:31:03;4.33;;;3.13;;
61344;SDS011;47216;42.656;23.232;2023-04-12T07:33:30;9.60;;;2.57;;
61344;SDS011;47216;42.656;23.232;2023-04-12T07:35:58;3.40;;;2.60;;
61344;SDS011;47216;42.656;23.232;2023-04-12T07:38:25;8.63;;;4.07;;
61344;SDS011;47216;42.656;23.232;2023-04-12T07:40:53;3.93;;;2.83;;
61344;SDS011;47216;42.656;23.232;2023-04-12T07:43:21;4.33;;;2.10;;
61344;SDS011;47216;42.656;23.232;2023-04-12T07:45:48;6.30;;;3.60;;
61344;SDS011;47216;42.656;23.232;2023-04-12T07:48:15;2.23;;;1.83;;
61344;SDS011;47216;42.656;23.232;2023-04-12T07:50:42;6.17;;;2.10;;
61344;SDS011;47216;42.656;23.232;2023-04-12T07:53:19;6.37;;;2.37;;
61344;SDS011;47216;42.656;23.232;2023-04-12T07:55:47;3.53;;;2.20;;
61344;SDS011;47216;42.656;23.232;2023-04-12T07:58:14;1.83;;;1.63;;
61344;SDS011;47216;42.656;23.232;2023-04-12T08:00:43;4.40;;;1.80;;
61344;SDS011;47216;42.656;23.232;2023-04-12T08:03:10;2.00;;;1.73;;
61344;SDS011;47216;42.656;23.232;2023-04-12T08:05:38;19.40;;;4.80;;
61344;SDS011;47216;42.656;23.232;2023-04-12T08:08:05;5.40;;;2.70;;
61344;SDS011;47216;42.656;23.232;2023-04-12T08:10:34;4.23;;;2.40;;
61344;SDS011;47216;42.656;23.232;2023-04-12T08:13:02;5.87;;;2.50;;
61344;SDS011;47216;42.656;23.232;2023-04-12T08:15:29;9.97;;;3.73;;
61344;SDS011;47216;42.656;23.232;2023-04-12T08:17:58;3.83;;;1.90;;
61344;SDS011;47216;42.656;23.232;2023-04-12T08:20:25;5.57;;;2.77;;
61344;SDS011;47216;42.656;23.232;2023-04-12T08:22:51;4.40;;;2.23;;
61344;SDS011;47216;42.656;23.232;2023-04-12T08:25:18;7.60;;;2.53;;
61344;SDS011;47216;42.656;23.232;2023-04-12T08:27:47;3.27;;;1.30;;
61344;SDS011;47216;42.656;23.232;2023-04-12T08:30:14;2.27;;;1.30;;
61344;SDS011;47216;42.656;23.232;2023-04-12T08:32:41;1.87;;;1.50;;
61344;SDS011;47216;42.656;23.232;2023-04-12T08:35:10;1.70;;;1.30;;
61344;SDS011;47216;42.656;23.232;2023-04-12T08:37:37;2.87;;;1.80;;
61344;SDS011;47216;42.656;23.232;2023-04-12T08:40:04;2.50;;;1.53;;
61344;SDS011;47216;42.656;23.232;2023-04-12T08:42:33;1.70;;;1.30;;
61344;SDS011;47216;42.656;23.232;2023-04-12T08:45:03;1.40;;;1.30;;
61344;SDS011;47216;42.656;23.232;2023-04-12T08:47:30;4.67;;;1.63;;
61344;SDS011;47216;42.656;23.232;2023-04-12T08:49:59;4.00;;;2.13;;
61344;SDS011;47216;42.656;23.232;2023-04-12T08:52:28;8.97;;;4.07;;
61344;SDS011;47216;42.656;23.232;2023-04-12T08:55:00;1.83;;;1.30;;
61344;SDS011;47216;42.656;23.232;2023-04-12T08:57:27;3.43;;;2.50;;
61344;SDS011;47216;42.656;23.232;2023-04-12T08:59:56;5.53;;;1.50;;
61344;SDS011;47216;42.656;23.232;2023-04-12T09:02:25;2.33;;;1.53;;
61344;SDS011;47216;42.656;23.232;2023-04-12T09:04:52;2.83;;;1.20;;
61344;SDS011;47216;42.656;23.232;2023-04-12T09:07:19;2.23;;;1.40;;
61344;SDS011;47216;42.656;23.232;2023-04-12T09:09:49;1.83;;;1.40;;
61344;SDS011;47216;42.656;23.232;2023-04-12T09:12:16;1.73;;;1.10;;
61344;SDS011;47216;42.656;23.232;2023-04-12T09:14:44;3.73;;;2.90;;
61344;SDS011;47216;42.656;23.232;2023-04-12T09:17:21;2.30;;;1.33;;
61344;SDS011;47216;42.656;23.232;2023-04-12T09:19:48;1.10;;;1.00;;
61344;SDS011;47216;42.656;23.232;2023-04-12T09:22:16;1.73;;;1.47;;
61344;SDS011;47216;42.656;23.232;2023-04-12T09:24:46;1.20;;;1.10;;
61344;SDS011;47216;42.656;23.232;2023-04-12T09:27:16;1.03;;;0.93;;
61344;SDS011;47216;42.656;23.232;2023-04-12T09:29:45;1.20;;;1.10;;
61344;SDS011;47216;42.656;23.232;2023-04-12T09:32:15;0.97;;;0.90;;
61344;SDS011;47216;42.656;23.232;2023-04-12T09:34:53;3.13;;;1.27;;
61344;SDS011;47216;42.656;23.232;2023-04-12T09:37:21;1.83;;;1.30;;
61344;SDS011;47216;42.656;23.232;2023-04-12T09:39:52;1.20;;;1.10;;
61344;SDS011;47216;42.656;23.232;2023-04-12T09:42:26;1.43;;;1.10;;
61344;SDS011;47216;42.656;23.232;2023-04-12T09:44:53;1.10;;;1.00;;
61344;SDS011;47216;42.656;23.232;2023-04-12T09:47:21;1.20;;;1.07;;
61344;SDS011;47216;42.656;23.232;2023-04-12T09:50:01;1.53;;;1.23;;
61344;SDS011;47216;42.656;23.232;2023-04-12T09:52:34;1.37;;;1.20;;
61344;SDS011;47216;42.656;23.232;2023-04-12T09:55:01;1.60;;;1.20;;
61344;SDS011;47216;42.656;23.232;2023-04-12T09:57:35;1.03;;;0.90;;
61344;SDS011;47216;42.656;23.232;2023-04-12T10:00:04;2.97;;;1.00;;
61344;SDS011;47216;42.656;23.232;2023-04-12T10:02:36;3.33;;;1.00;;
61344;SDS011;47216;42.656;23.232;2023-04-12T10:05:07;1.90;;;1.33;;
61344;SDS011;47216;42.656;23.232;2023-04-12T10:07:37;5.03;;;3.07;;
61344;SDS011;47216;42.656;23.232;2023-04-12T10:10:07;2.07;;;0.90;;
61344;SDS011;47216;42.656;23.232;2023-04-12T10:12:38;1.83;;;1.07;;
61344;SDS011;47216;42.656;23.232;2023-04-12T10:15:06;4.23;;;0.93;;
61344;SDS011;47216;42.656;23.232;2023-04-12T10:17:40;1.37;;;0.80;;
61344;SDS011;47216;42.656;23.232;2023-04-12T10:20:09;1.60;;;1.00;;
61344;SDS011;47216;42.656;23.232;2023-04-12T10:22:37;0.80;;;0.73;;
61344;SDS011;47216;42.656;23.232;2023-04-12T10:25:08;1.00;;;0.90;;
61344;SDS011;47216;42.656;23.232;2023-04-12T10:27:40;2.43;;;0.70;;
61344;SDS011;47216;42.656;23.232;2023-04-12T10:30:17;0.90;;;0.87;;
61344;SDS011;47216;42.656;23.232;2023-04-12T10:32:45;2.70;;;1.13;;
61344;SDS011;47216;42.656;23.232;2023-04-12T10:35:12;2.33;;;1.30;;
61344;SDS011;47216;42.656;23.232;2023-04-12T10:37:58;2.93;;;1.70;;
61344;SDS011;47216;42.656;23.232;2023-04-12T10:40:26;4.43;;;1.87;;
61344;SDS011;47216;42.656;23.232;2023-04-12T10:45:54;1.20;;;0.90;;
61344;SDS011;47216;42.656;23.232;2023-04-12T10:48:29;2.03;;;1.00;;
61344;SDS011;47216;42.656;23.232;2023-04-12T10:51:10;0.77;;;0.70;;
61344;SDS011;47216;42.656;23.232;2023-04-12T10:53:38;0.80;;;0.80;;
61344;SDS011;47216;42.656;23.232;2023-04-12T10:59:04;4.83;;;0.70;;
61344;SDS011;47216;42.656;23.232;2023-04-12T11:01:32;2.00;;;0.83;;
61344;SDS011;47216;42.656;23.232;2023-04-12T11:04:15;1.00;;;0.70;;
61344;SDS011;47216;42.656;23.232;2023-04-12T11:06:53;1.17;;;0.70;;
61344;SDS011;47216;42.656;23.232;2023-04-12T11:09:22;1.10;;;0.77;;
61344;SDS011;47216;42.656;23.232;2023-04-12T11:11:51;1.70;;;0.73;;
61344;SDS011;47216;42.656;23.232;2023-04-12T11:14:34;2.90;;;1.80;;
61344;SDS011;47216;42.656;23.232;2023-04-12T11:17:20;2.33;;;1.13;;
61344;SDS011;47216;42.656;23.232;2023-04-12T11:19:49;0.70;;;0.70;;
61344;SDS011;47216;42.656;23.232;2023-04-12T11:22:21;3.57;;;0.80;;
61344;SDS011;47216;42.656;23.232;2023-04-12T11:24:49;2.20;;;0.77;;
61344;SDS011;47216;42.656;23.232;2023-04-12T11:27:18;2.23;;;0.73;;
61344;SDS011;47216;42.656;23.232;2023-04-12T11:29:50;1.17;;;0.80;;
61344;SDS011;47216;42.656;23.232;2023-04-12T11:32:20;1.77;;;0.87;;
61344;SDS011;47216;42.656;23.232;2023-04-12T11:34:47;1.93;;;1.00;;
61344;SDS011;47216;42.656;23.232;2023-04-12T11:37:14;1.03;;;0.93;;
61344;SDS011;47216;42.656;23.232;2023-04-12T11:39:44;1.33;;;0.97;;
61344;SDS011;47216;42.656;23.232;2023-04-12T11:42:12;1.93;;;0.80;;
61344;SDS011;47216;42.656;23.232;2023-04-12T11:44:43;2.23;;;0.70;;
61344;SDS011;47216;42.656;23.232;2023-04-12T11:47:15;3.87;;;0.80;;
61344;SDS011;47216;42.656;23.232;2023-04-12T11:49:44;0.73;;;0.70;;
61344;SDS011;47216;42.656;23.232;2023-04-12T11:52:11;2.40;;;1.67;;
61344;SDS011;47216;42.656;23.232;2023-04-12T11:54:42;9.47;;;1.90;;
61344;SDS011;47216;42.656;23.232;2023-04-12T11:57:11;1.70;;;1.30;;
61344;SDS011;47216;42.656;23.232;2023-04-12T11:59:39;1.87;;;1.10;;
61344;SDS011;47216;42.656;23.232;2023-04-12T12:02:09;1.83;;;1.23;;
61344;SDS011;47216;42.656;23.232;2023-04-12T12:04:37;4.83;;;2.13;;
61344;SDS011;47216;42.656;23.232;2023-04-12T12:07:06;0.80;;;0.70;;
61344;SDS011;47216;42.656;23.232;2023-04-12T12:09:33;1.37;;;0.60;;
61344;SDS011;47216;42.656;23.232;2023-04-12T12:12:00;2.30;;;0.90;;
61344;SDS011;47216;42.656;23.232;2023-04-12T12:14:28;1.67;;;1.53;;
61344;SDS011;47216;42.656;23.232;2023-04-12T12:16:59;4.57;;;2.70;;
61344;SDS011;47216;42.656;23.232;2023-04-12T12:19:27;1.93;;;1.13;;
61344;SDS011;47216;42.656;23.232;2023-04-12T12:22:05;1.43;;;0.90;;
61344;SDS011;47216;42.656;23.232;2023-04-12T12:24:36;1.67;;;1.00;;
61344;SDS011;47216;42.656;23.232;2023-04-12T12:27:03;1.50;;;0.70;;
61344;SDS011;47216;42.656;23.232;2023-04-12T12:29:33;1.23;;;0.60;;
61344;SDS011;47216;42.656;23.232;2023-04-12T12:32:01;4.73;;;0.87;;
61344;SDS011;47216;42.656;23.232;2023-04-12T12:34:30;1.07;;;0.60;;
61344;SDS011;47216;42.656;23.232;2023-04-12T12:36:59;1.50;;;0.60;;
61344;SDS011;47216;42.656;23.232;2023-04-12T12:39:29;0.70;;;0.60;;
61344;SDS011;47216;42.656;23.232;2023-04-12T12:41:56;1.07;;;0.70;;
61344;SDS011;47216;42.656;23.232;2023-04-12T12:44:23;0.60;;;0.60;;
61344;SDS011;47216;42.656;23.232;2023-04-12T12:46:50;3.27;;;1.93;;
61344;SDS011;47216;42.656;23.232;2023-04-12T12:49:17;4.83;;;3.03;;
61344;SDS011;47216;42.656;23.232;2023-04-12T12:51:44;2.73;;;1.60;;
61344;SDS011;47216;42.656;23.232;2023-04-12T12:54:10;4.90;;;1.50;;
61344;SDS011;47216;42.656;23.232;2023-04-12T12:56:39;1.60;;;1.00;;
61344;SDS011;47216;42.656;23.232;2023-04-12T12:59:05;1.20;;;0.70;;
61344;SDS011;47216;42.656;23.232;2023-04-12T13:01:32;2.53;;;0.80;;
61344;SDS011;47216;42.656;23.232;2023-04-12T13:03:59;0.67;;;0.67;;
61344;SDS011;47216;42.656;23.232;2023-04-12T13:06:26;0.57;;;0.57;;
61344;SDS011;47216;42.656;23.232;2023-04-12T13:08:53;0.73;;;0.73;;
61344;SDS011;47216;42.656;23.232;2023-04-12T13:11:20;0.70;;;0.70;;
61344;SDS011;47216;42.656;23.232;2023-04-12T13:13:48;2.30;;;0.60;;
61344;SDS011;47216;42.656;23.232;2023-04-12T13:16:15;1.97;;;0.80;;
61344;SDS011;47216;42.656;23.232;2023-04-12T13:18:42;2.53;;;1.00;;
61344;SDS011;47216;42.656;23.232;2023-04-12T13:21:09;2.07;;;0.70;;
61344;SDS011;47216;42.656;23.232;2023-04-12T13:23:36;2.60;;;0.90;;
61344;SDS011;47216;42.656;23.232;2023-04-12T13:26:03;2.53;;;1.00;;
61344;SDS011;47216;42.656;23.232;2023-04-12T13:28:30;1.30;;;0.87;;
61344;SDS011;47216;42.656;23.232;2023-04-12T13:30:58;1.20;;;0.80;;
61344;SDS011;47216;42.656;23.232;2023-04-12T13:33:25;1.17;;;0.70;;
61344;SDS011;47216;42.656;23.232;2023-04-12T13:35:52;1.53;;;1.23;;
61344;SDS011;47216;42.656;23.232;2023-04-12T13:38:19;0.60;;;0.60;;
61344;SDS011;47216;42.656;23.232;2023-04-12T13:40:46;1.17;;;0.90;;
61344;SDS011;47216;42.656;23.232;2023-04-12T13:43:12;1.90;;;0.83;;
61344;SDS011;47216;42.656;23.232;2023-04-12T13:45:40;1.40;;;0.90;;
61344;SDS011;47216;42.656;23.232;2023-04-12T13:48:08;0.90;;;0.70;;
61344;SDS011;47216;42.656;23.232;2023-04-12T13:50:35;1.33;;;0.70;;
61344;SDS011;47216;42.656;23.232;2023-04-12T13:53:02;2.50;;;1.60;;
61344;SDS011;47216;42.656;23.232;2023-04-12T13:55:29;0.57;;;0.57;;
61344;SDS011;47216;42.656;23.232;2023-04-12T13:57:55;1.80;;;0.87;;
61344;SDS011;47216;42.656;23.232;2023-04-12T14:00:22;1.70;;;0.60;;
61344;SDS011;47216;42.656;23.232;2023-04-12T14:02:49;0.60;;;0.60;;
61344;SDS011;47216;42.656;23.232;2023-04-12T14:05:17;1.00;;;0.90;;
61344;SDS011;47216;42.656;23.232;2023-04-12T14:07:44;0.70;;;0.70;;
61344;SDS011;47216;42.656;23.232;2023-04-12T14:10:13;1.60;;;0.80;;
61344;SDS011;47216;42.656;23.232;2023-04-12T14:12:40;0.77;;;0.77;;
61344;SDS011;47216;42.656;23.232;2023-04-12T14:15:07;0.70;;;0.70;;
61344;SDS011;47216;42.656;23.232;2023-04-12T14:17:35;0.80;;;0.73;;
61344;SDS011;47216;42.656;23.232;2023-04-12T14:20:01;0.70;;;0.70;;
61344;SDS011;47216;42.656;23.232;2023-04-12T14:22:33;0.60;;;0.60;;
61344;SDS011;47216;42.656;23.232;2023-04-12T14:25:00;1.90;;;0.77;;
61344;SDS011;47216;42.656;23.232;2023-04-12T14:27:27;2.57;;;1.97;;
61344;SDS011;47216;42.656;23.232;2023-04-12T14:29:54;4.23;;;2.00;;
61344;SDS011;47216;42.656;23.232;2023-04-12T14:32:20;0.83;;;0.73;;
61344;SDS011;47216;42.656;23.232;2023-04-12T14:34:47;1.40;;;1.07;;
61344;SDS011;47216;42.656;23.232;2023-04-12T14:37:14;0.60;;;0.60;;
61344;SDS011;47216;42.656;23.232;2023-04-12T14:39:42;0.67;;;0.67;;
61344;SDS011;47216;42.656;23.232;2023-04-12T14:42:09;1.03;;;0.80;;
61344;SDS011;47216;42.656;23.232;2023-04-12T14:44:37;0.73;;;0.73;;